Weather observations for the past three days for
Richmond Municipal Airport
Imperial (Metric)
Date Time (edt) Wind (mph) Vis. (mi.) Weather Sky Cond. Temperature (ºF) Relative Humidity Wind Chill (°F) Heat Index (°F) Pressure Precipitation (in)
Air Dwpt 6 hour altimeter (in) sea level (mb) 1 hr 3 hr 6 hr
Max. Min.
04 22:35 S 12 10.00 Mostly Cloudy BKN110 60.8 50 68% 29.71 0.0
04 22:15 S 9 10.00 Mostly Cloudy BKN100 59 50 72% 29.7 0.0
04 21:55 S 10 10.00 Partly Cloudy SCT100 60.8 50 68% 29.69 0.0
04 21:35 S 9 10.00 Fair CLR 62.6 50 64% 29.69 0.0
04 21:15 S 10 10.00 Fair CLR 62.6 50 64% 29.68 0.0
04 20:55 S 10 10.00 Fair CLR 64.4 50 60% 29.68 0.0
04 20:35 S 13 10.00 Fair CLR 68 50 53% 29.68 0.0
04 20:15 S 15 G 23 10.00 Fair CLR 68 50 53% 29.68 0.0
04 19:55 S 17 10.00 Partly Cloudy SCT120 69.8 50 50% 29.69 0.0
04 19:35 S 15 G 21 10.00 Partly Cloudy SCT120 69.8 50 50% 29.69 0.0
04 19:15 S 15 10.00 Fair CLR 69.8 50 50% 29.7 0.0
04 18:55 S 21 G 24 10.00 Fair and Breezy CLR 71.6 51.8 50% 29.71 0.0
04 18:35 S 14 10.00 Fair CLR 69.8 51.8 53% 29.71 0.0
04 18:15 S 16 10.00 Partly Cloudy SCT110 69.8 51.8 53% 29.71 0.0
04 17:35 S 16 G 25 10.00 Mostly Cloudy SCT095 BKN120 66.2 51.8 60% 29.72 0.0
04 17:15 SW 21 G 26 10.00 Mostly Cloudy and Breezy BKN110 64.4 50 60% 29.74 0.0
04 16:55 SW 18 G 26 10.00 Overcast SCT070 OVC100 64.4 51.8 64% 29.74 0.0
04 16:35 SW 21 G 30 10.00 Mostly Cloudy and Breezy SCT032 SCT060 BKN100 66.2 50 56% 29.75 0.0
04 16:15 W 7 10.00 Mostly Cloudy SCT032 SCT050 BKN070 64.4 50 60% 29.73 0.0
04 15:55 SW 22 G 25 10.00 Fair and Breezy CLR 66.2 50 56% 29.78 0.0
04 15:35 SW 17 G 26 10.00 Partly Cloudy SCT110 68 50 53% 29.77 0.0
04 15:15 SW 20 G 25 10.00 Mostly Cloudy BKN110 66.2 51.8 60% 29.77 0.0
04 14:55 SW 20 G 24 10.00 Overcast SCT039 SCT070 OVC110 66.2 50 56% 29.77 0.0
04 14:35 SW 15 G 26 10.00 Overcast SCT038 SCT070 OVC110 64.4 50 60% 29.77 0.0
04 14:15 SW 22 G 33 10.00 Mostly Cloudy and Breezy BKN110 68 50 53% 29.78 0.0
04 13:55 SW 18 10.00 Fair CLR 68 50 53% 29.78 0.0
04 13:35 SW 23 G 29 10.00 Fair and Breezy CLR 69.8 50 50% 29.77 0.0
04 13:15 SW 18 G 28 10.00 Fair CLR 68 50 53% 29.77 0.0
04 12:55 SW 18 G 24 10.00 Fair CLR 68 50 53% 29.77 0.0
04 12:35 SW 21 G 30 10.00 Fair and Breezy CLR 68 48.2 49% 29.78 0.0
04 12:15 SW 18 G 28 10.00 Fair CLR 68 50 53% 29.78 0.0
04 11:55 SW 18 G 24 10.00 Fair CLR 66.2 50 56% 29.78 0.0
04 11:35 SW 17 G 23 10.00 Fair CLR 64.4 50 60% 29.78 0.0
04 11:15 SW 16 G 21 10.00 Fair CLR 64.4 50 60% 29.79 0.0
04 10:55 SW 16 10.00 Fair CLR 62.6 48.2 60% 29.79 0.0
04 10:35 SW 13 G 20 10.00 Fair CLR 60.8 48.2 63% 29.79 0.0
04 10:15 SW 13 10.00 Fair CLR 59 46.4 63% 29.8 0.0
04 09:55 SW 13 G 17 10.00 Fair CLR 57.2 46.4 67% 29.8 0.0
04 09:35 SW 15 10.00 Fair CLR 57.2 46.4 67% 29.81 0.0
04 09:15 S 16 10.00 Fair CLR 55.4 44.6 67% 29.8 0.0
04 08:55 S 10 10.00 Fair CLR 53.6 44.6 72% 29.8 0.0
04 08:35 S 10 10.00 Fair CLR 53.6 44.6 72% 29.8 0.0
04 08:15 S 10 10.00 Fair CLR 51.8 42.8 72% 29.8 0.0
04 07:55 S 9 10.00 Partly Cloudy SCT065 50 42.8 76% 47 29.8 0.0
04 07:35 S 8 10.00 Fair CLR 46.4 41 82% 43 29.81 0.0
04 07:15 S 8 10.00 Fair CLR 44.6 41 87% 41 29.8 0.0
04 06:55 S 9 10.00 Fair CLR 42.8 39.2 87% 38 29.8 0.0
04 06:35 S 7 10.00 Fair CLR 41 37.4 87% 37 29.81 0.0
04 06:15 S 8 10.00 Fair CLR 42.8 37.4 81% 39 29.81 0.0
04 05:55 S 9 10.00 Fair CLR 42.8 37.4 81% 38 29.82 0.0
04 05:35 S 9 10.00 Fair CLR 42.8 37.4 81% 38 29.82 0.0
04 05:15 S 10 10.00 Fair CLR 44.6 39.2 81% 40 29.83 0.0
04 04:55 S 9 10.00 Fair CLR 42.8 37.4 81% 38 29.83 0.0
04 04:35 S 9 10.00 Fair CLR 44.6 39.2 81% 40 29.83 0.0
04 04:15 S 10 10.00 Fair CLR 44.6 39.2 81% 40 29.83 0.0
04 03:55 S 10 10.00 Fair CLR 42.8 39.2 87% 38 29.84 0.0
04 03:35 S 8 10.00 Fair CLR 44.6 39.2 81% 41 29.84 0.0
04 03:15 S 9 10.00 Fair CLR 44.6 39.2 81% 40 29.84 0.0
04 02:55 S 10 10.00 Fair CLR 44.6 39.2 81% 40 29.85 0.0
04 02:35 S 10 10.00 Fair CLR 44.6 39.2 81% 40 29.85 0.0
04 02:15 S 12 10.00 Fair CLR 44.6 39.2 81% 39 29.86 0.0
04 01:55 S 9 10.00 Fair CLR 44.6 39.2 81% 40 29.86 0.0
04 01:35 S 9 10.00 Fair CLR 44.6 39.2 81% 40 29.87 0.0
04 01:15 S 8 10.00 Fair CLR 46.4 39.2 76% 43 29.88 0.0
04 00:55 S 8 10.00 Fair CLR 46.4 39.2 76% 43 29.88 0.0
04 00:35 S 8 10.00 Partly Cloudy SCT075 SCT085 46.4 39.2 76% 43 29.89 0.0
04 00:15 S 9 10.00 Mostly Cloudy SCT075 BKN095 46.4 39.2 76% 42 29.89 0.0
03 23:55 S 9 10.00 Overcast SCT075 OVC095 50 39.2 67% 47 29.9 0.0
03 23:35 S 9 10.00 Overcast OVC095 50 39.2 67% 47 29.9 0.0
03 23:15 S 9 10.00 Overcast SCT075 OVC095 50 41 71% 47 29.91 0.0
03 22:55 S 8 10.00 Overcast SCT075 OVC095 50 41 71% 47 29.91 0.0
03 22:35 S 8 10.00 Overcast SCT075 OVC095 51.8 41 67% 29.91 0.0
03 22:15 S 7 10.00 Overcast SCT075 OVC095 51.8 39.2 62% 29.91 0.0
03 21:55 S 10 10.00 Overcast BKN075 OVC095 53.6 37.4 54% 29.91 0.0
03 21:35 S 10 10.00 Overcast BKN075 OVC085 53.6 35.6 51% 29.91 0.0
03 21:15 S 8 10.00 Overcast BKN080 OVC095 51.8 37.4 58% 29.91 0.0
03 20:55 S 8 10.00 Overcast OVC080 53.6 37.4 54% 29.91 0.0
03 20:35 S 7 10.00 Overcast OVC080 53.6 35.6 51% 29.91 0.0
03 20:15 S 13 10.00 Overcast SCT042 SCT060 OVC090 55.4 35.6 47% 29.9 0.0
03 19:55 S 15 10.00 Light Rain SCT040 SCT060 OVC080 55.4 35.6 47% 29.9 0.0
03 19:35 S 15 10.00 Mostly Cloudy BKN080 55.4 33.8 44% 29.91 0.0
03 19:15 S 14 G 17 10.00 Partly Cloudy SCT080 SCT100 55.4 33.8 44% 29.91 0.0
03 18:55 S 12 G 22 10.00 Mostly Cloudy SCT045 SCT065 BKN070 55.4 35.6 47% 29.91 0.0
03 18:35 S 18 G 23 10.00 Overcast SCT050 BKN065 OVC075 57.2 33.8 41% 29.93 0.0
03 18:15 S 16 G 25 10.00 Overcast BKN085 OVC090 59 32 36% 29.94 0.0
03 17:55 SW 16 10.00 Overcast BKN095 OVC110 57.2 32 39% 29.95 0.0
03 17:35 SW 16 G 23 10.00 Overcast OVC110 59 32 36% 29.95 0.0
03 17:15 SE 6 10.00 Mostly Cloudy BKN110 53.6 33.8 47% 29.96 0.0
03 16:55 NE 5 10.00 Light Rain SCT048 BKN060 OVC100 53.6 35.6 51% 29.97 0.0
03 16:35 Calm 10.00 Overcast SCT014 BKN060 OVC070 50 33.8 54% 29.98 0.0
03 16:15 W 5 G 17 7.00 Light Rain SCT015 BKN050 OVC070 50 33.8 54% 49 30.01 0.0
03 15:55 SW 22 G 36 10.00 Overcast and Breezy SCT048 BKN070 OVC090 55.4 32 41% 30.02 0.0
03 15:35 SW 15 G 26 10.00 Mostly Cloudy BKN090 BKN110 55.4 32 41% 30 0.0
03 15:15 S 17 G 28 10.00 Partly Cloudy SCT110 57.2 32 39% 30.01 0.0
03 14:55 SW 17 G 24 10.00 Partly Cloudy SCT110 57.2 32 39% 30.02 0.0
03 14:35 SW 21 G 26 10.00 Partly Cloudy and Breezy SCT070 SCT110 59 32 36% 30.03 0.0
03 14:15 SW 17 G 22 10.00 Partly Cloudy SCT120 59 32 36% 30.03 0.0
03 13:55 S 21 G 29 10.00 Fair and Breezy CLR 55.4 30.2 38% 30.04 0.0
03 13:35 SW 17 G 26 10.00 Fair CLR 57.2 30.2 36% 30.05 0.0
03 13:15 SW 18 G 25 10.00 Fair CLR 57.2 32 39% 30.06 0.0
03 12:55 SW 20 G 24 10.00 Fair CLR 57.2 32 39% 30.07 0.0
03 12:35 SW 20 G 25 10.00 Fair CLR 55.4 32 41% 30.08 0.0
03 12:15 SW 17 G 24 10.00 Fair CLR 55.4 32 41% 30.08 0.0
03 11:55 SW 16 G 21 10.00 Fair CLR 53.6 32 44% 30.09 0.0
03 11:35 SW 16 10.00 Fair CLR 53.6 32 44% 30.09 0.0
03 11:15 SW 17 G 24 10.00 Fair CLR 53.6 32 44% 30.1 0.0
03 10:55 SW 15 10.00 Fair CLR 53.6 32 44% 30.09 0.0
03 10:35 SW 18 G 22 10.00 Fair CLR 51.8 32 47% 30.09 0.0
03 10:15 SW 16 10.00 Fair CLR 50 32 50% 45 30.09 0.0
03 09:55 SW 17 10.00 Fair CLR 46.4 32 57% 40 30.09 0.0
03 09:35 SW 14 10.00 Fair CLR 46.4 32 57% 41 30.1 0.0
03 09:15 SW 14 7.00 Fair CLR 44.6 32 61% 39 30.1 0.0
03 08:55 SW 12 G 17 10.00 Fair CLR 42.8 32 66% 37 30.1 0.0
03 08:35 SW 10 10.00 Fair CLR 41 32 70% 35 30.1 0.0
03 08:15 SW 12 10.00 Fair CLR 39.2 32 75% 33 30.1 0.0
03 07:55 SW 9 10.00 Fair CLR 37.4 32 81% 31 30.09 0.0
03 07:35 SW 8 10.00 Fair CLR 35.6 32 87% 30 30.08 0.0
03 07:15 SW 8 10.00 Fair CLR 35.6 30.2 81% 30 30.08 0.0
03 06:55 SW 8 10.00 Fair CLR 35.6 30.2 81% 30 30.08 0.0
03 06:35 SW 9 10.00 Fair CLR 35.6 30.2 81% 29 30.07 0.0
03 06:15 SW 9 10.00 Fair CLR 35.6 30.2 81% 29 30.07 0.0
03 05:55 SW 8 10.00 Fair CLR 35.6 30.2 81% 30 30.06 0.0
03 05:35 SW 8 10.00 Fair CLR 35.6 30.2 81% 30 30.07 0.0
03 05:15 SW 8 10.00 Fair CLR 33.8 30.2 87% 28 30.06 0.0
03 04:55 SW 7 10.00 Fair CLR 35.6 30.2 81% 31 30.07 0.0
03 04:35 SW 8 10.00 Fair CLR 33.8 30.2 87% 28 30.06 0.0
03 04:15 SW 7 10.00 Fair CLR 33.8 30.2 87% 28 30.07 0.0
03 03:55 SW 7 10.00 Fair CLR 35.6 30.2 81% 31 30.07 0.0
03 03:35 SW 6 10.00 Fair CLR 33.8 30.2 87% 29 30.06 0.0
03 03:15 SW 5 10.00 Fair CLR 33.8 30.2 87% 30 30.07 0.0
03 02:55 SW 6 10.00 Fair CLR 33.8 32 93% 29 30.07 0.0
03 02:35 SW 6 10.00 Fair CLR 35.6 32 87% 31 30.07 0.0
03 02:15 SW 6 10.00 Fair CLR 33.8 32 93% 29 30.08 0.0
03 01:55 SW 7 10.00 Fair CLR 33.8 32 93% 28 30.08 0.0
03 01:35 SW 5 10.00 Fair CLR 35.6 32 87% 32 30.08 0.0
03 01:15 SW 5 10.00 Fair CLR 35.6 30.2 81% 32 30.08 0.0
03 00:55 SW 3 10.00 Fair CLR 37.4 30.2 75% 30.08 0.0
03 00:35 SW 3 10.00 Fair CLR 35.6 32 87% 30.08 0.0
03 00:15 SW 3 10.00 Fair CLR 35.6 32 87% 30.08 0.0
02 23:55 SW 5 10.00 Fair CLR 35.6 32 87% 32 30.08 0.0
02 23:35 Calm 10.00 Fair CLR 35.6 33.8 93% 30.08 0.0
02 23:15 SW 3 10.00 Fair CLR 35.6 32 87% 30.08 0.0
02 22:55 Calm 10.00 Fair CLR 37.4 32 81% 30.08 0.0
02 22:15 Calm 10.00 Fair CLR 37.4 32 81% 30.08 0.0
02 21:55 Calm 10.00 Fair CLR 37.4 32 81% 30.08 0.0
02 21:35 Calm 10.00 Fair CLR 41 28.4 61% 30.08 0.0
02 21:15 Calm 10.00 Fair CLR 42.8 28.4 57% 30.07 0.0
02 20:55 Calm 10.00 Fair CLR 42.8 28.4 57% 30.07 0.0
02 20:35 N 3 10.00 Fair CLR 42.8 28.4 57% 30.07 0.0
02 20:15 N 5 10.00 Fair CLR 44.6 28.4 53% 43 30.06 0.0
02 19:55 NW 9 10.00 Mostly Cloudy BKN065 46.4 26.6 46% 42 30.06 0.0
02 19:35 NW 7 10.00 Overcast OVC065 46.4 28.4 50% 43 30.06 0.0
02 19:15 N 12 G 17 10.00 Overcast SCT055 OVC065 46.4 28.4 50% 42 30.06 0.0
02 18:55 N 13 10.00 Overcast SCT055 OVC065 46.4 28.4 50% 41 30.06 0.0
02 18:35 NW 10 G 18 10.00 Overcast OVC065 46.4 28.4 50% 42 30.06 0.0
02 18:15 NW 12 G 20 10.00 Mostly Cloudy SCT055 BKN065 46.4 28.4 50% 42 30.06 0.0
02 17:55 NW 14 G 20 10.00 Mostly Cloudy SCT055 BKN065 48.2 28.4 46% 43 30.05 0.0
02 17:35 NW 14 G 17 10.00 Mostly Cloudy SCT055 BKN065 46.4 28.4 50% 41 30.05 0.0
02 17:15 N 8 10.00 Mostly Cloudy BKN065 48.2 30.2 50% 45 30.05 0.0
02 16:55 NW 12 G 16 10.00 Mostly Cloudy BKN055 BKN070 50 28.4 43% 46 30.05 0.0
02 16:35 N 9 10.00 Mostly Cloudy BKN055 46.4 28.4 50% 42 30.05 0.0
02 16:15 NW 8 G 20 10.00 Mostly Cloudy SCT055 BKN065 50 28.4 43% 47 30.05 0.0
02 15:55 NW 10 G 16 10.00 Partly Cloudy SCT055 50 28.4 43% 46 30.05 0.0
02 15:35 NW 10 10.00 Mostly Cloudy BKN055 50 28.4 43% 46 30.06 0.0
02 15:15 N 13 G 18 10.00 Mostly Cloudy BKN055 51.8 30.2 44% 30.06 0.0
02 14:55 W 13 G 18 10.00 Partly Cloudy SCT055 50 28.4 43% 46 30.06 0.0
02 14:35 NW 15 10.00 Mostly Cloudy BKN055 48.2 26.6 43% 43 30.07 0.0
02 14:15 NW 10 G 17 10.00 Mostly Cloudy BKN055 46.4 28.4 50% 42 30.07 0.0
02 13:55 NW 13 G 18 10.00 Partly Cloudy SCT055 48.2 28.4 46% 43 30.07 0.0
02 13:35 NW 10 G 18 10.00 Partly Cloudy SCT055 48.2 28.4 46% 44 30.08 0.0
02 13:15 NW 10 10.00 Partly Cloudy SCT055 46.4 28.4 50% 42 30.08 0.0
02 12:55 N 13 10.00 Partly Cloudy SCT055 46.4 28.4 50% 41 30.08 0.0
02 12:35 N 9 10.00 Partly Cloudy SCT050 46.4 28.4 50% 42 30.09 0.0
02 12:15 N 5 10.00 Partly Cloudy SCT050 46.4 28.4 50% 45 30.09 0.0
02 11:55 NW 9 10.00 Fair CLR 44.6 26.6 49% 40 30.09 0.0
02 11:35 NW 6 10.00 Fair CLR 44.6 26.6 49% 42 30.1 0.0
02 11:15 N 8 10.00 Fair CLR 44.6 28.4 53% 41 30.09 0.0
02 10:55 N 8 10.00 Fair CLR 44.6 28.4 53% 41 30.09 0.0
02 10:35 NW 10 G 16 10.00 Fair CLR 42.8 28.4 57% 38 30.09 0.0
02 10:15 N 9 10.00 Fair CLR 42.8 28.4 57% 38 30.09 0.0
02 09:55 NW 9 10.00 Fair CLR 42.8 28.4 57% 38 30.09 0.0
02 09:35 NW 9 10.00 Fair CLR 41 28.4 61% 36 30.09 0.0
02 09:15 N 7 10.00 Fair CLR 41 30.2 66% 37 30.09 0.0
02 08:55 N 6 10.00 Fair CLR 39.2 30.2 70% 36 30.08 0.0
02 08:35 N 8 10.00 Fair CLR 37.4 30.2 75% 32 30.08 0.0
02 08:15 N 7 10.00 Fair CLR 35.6 28.4 75% 31 30.08 0.0
02 07:55 N 7 10.00 Partly Cloudy SCT050 SCT060 35.6 30.2 81% 31 30.07 0.0
02 07:35 NW 3 10.00 Fair CLR 33.8 32 93% 30.07 0.0
02 07:15 N 5 10.00 Fair CLR 33.8 30.2 87% 30 30.06 0.0
02 06:55 NW 5 10.00 Fair CLR 33.8 30.2 87% 30 30.06 0.0
02 06:35 NW 6 10.00 Fair CLR 33.8 30.2 87% 29 30.06 0.0
02 06:15 N 5 10.00 Fair CLR 33.8 32 93% 30 30.06 0.0
02 05:55 NW 5 10.00 Fair CLR 35.6 32 87% 32 30.06 0.0
02 05:35 Calm 10.00 Mostly Cloudy SCT047 BKN070 35.6 32 87% 30.06 0.0
02 05:15 N 3 10.00 Overcast SCT049 BKN060 OVC070 37.4 32 81% 30.06 0.0
02 04:55 N 3 10.00 Overcast BKN049 BKN060 OVC070 37.4 32 81% 30.06 0.0
02 04:35 Calm 10.00 Overcast SCT060 OVC070 37.4 32 81% 30.06 0.0
02 04:15 Calm 10.00 Overcast BKN049 BKN060 OVC070 37.4 32 81% 30.05 0.0
02 03:55 N 6 10.00 Overcast BKN049 BKN060 OVC075 37.4 32 81% 33 30.05 0.0
02 03:35 N 5 10.00 Overcast OVC049 37.4 32 81% 34 30.05 0.0
02 03:15 NW 3 10.00 Mostly Cloudy BKN049 BKN060 BKN070 35.6 32 87% 30.06 0.0
02 02:55 N 3 10.00 Partly Cloudy SCT049 SCT060 SCT070 35.6 32 87% 30.06 0.0
02 02:35 N 3 10.00 Partly Cloudy SCT080 35.6 32 87% 30.06 0.0
02 02:15 Calm 10.00 Mostly Cloudy BKN080 35.6 32 87% 30.06 0.0
02 01:55 N 3 10.00 Partly Cloudy SCT070 35.6 32 87% 30.06 0.0
02 01:35 Calm 10.00 Partly Cloudy SCT070 37.4 32 81% 30.07 0.0
02 01:15 NW 3 10.00 Fair CLR 37.4 32 81% 30.07 0.0
02 00:55 Calm 10.00 Fair CLR 37.4 32 81% 30.07 0.0
02 00:35 N 3 10.00 Fair CLR 39.2 32 75% 30.07 0.0
02 00:15 Calm 10.00 Fair CLR 39.2 32 75% 30.07 0.0
01 23:55 N 5 10.00 Partly Cloudy SCT080 39.2 32 75% 36 30.07 0.0
01 23:35 N 3 10.00 Partly Cloudy SCT080 39.2 33.8 81% 30.07 0.0
01 23:15 NW 5 10.00 Fair CLR 39.2 33.8 81% 36 30.07 0.0
01 22:55 NW 5 10.00 Fair CLR 41 33.8 76% 38 30.07 0.0
Date Time (edt) Wind (mph) Vis. (mi.) Weather Sky Cond. Air Dwpt Max. Min. Relative Humidity Wind Chill (°F) Heat Index (°F) altimeter (in) sea level (mb) 1 hr 3 hr 6 hr
6 hour
Temperature (ºF) Pressure Precipitation (in)